Time;durP1;ratioP1;P1;durP2;ratioP2;P2;SDS_P1;SDS_P2;PMS_P1;PMS_P2;Temp;Humidity;BMP_temperature;BMP_pressure;BME280_temperature;BME280_humidity;BME280_pressure;Samples;Min_cycle;Max_cycle;Signal;HPM_P1;HPM_P2
2024/02/15 00:01:45;;;;;;;10.17;1.90;;;11.30;99.90;;;;;;5094406;28;20460;-70
2024/02/15 00:04:13;;;;;;;7.60;1.90;;;11.30;99.90;;;;;;5099830;28;21286;-70
2024/02/15 00:06:41;;;;;;;7.90;2.37;;;11.30;99.90;;;;;;5095029;28;20442;-70
2024/02/15 00:09:09;;;;;;;10.40;2.60;;;11.30;99.90;;;;;;5097155;28;20488;-68
2024/02/15 00:11:39;;;;;;;7.77;2.00;;;11.30;99.90;;;;;;5096179;28;20443;-70
2024/02/15 00:14:08;;;;;;;8.10;2.10;;;11.20;99.90;;;;;;5092781;28;20517;-69
2024/02/15 00:16:36;;;;;;;9.80;2.20;;;11.20;99.90;;;;;;5095044;28;20481;-70
2024/02/15 00:19:04;;;;;;;8.83;2.37;;;11.20;99.90;;;;;;5091204;28;20525;-69
2024/02/15 00:21:32;;;;;;;8.73;2.63;;;11.20;99.90;;;;;;5097478;28;20433;-70
2024/02/15 00:24:00;;;;;;;8.63;2.87;;;11.20;99.90;;;;;;5100941;28;20495;-70
2024/02/15 00:26:28;;;;;;;8.83;3.00;;;11.10;99.90;;;;;;5093602;28;21178;-70
2024/02/15 00:28:56;;;;;;;10.20;3.00;;;11.10;99.90;;;;;;5091897;28;20467;-70
2024/02/15 00:31:25;;;;;;;8.90;2.60;;;11.10;99.90;;;;;;5091569;28;20493;-70
2024/02/15 00:33:53;;;;;;;9.90;3.77;;;11.00;99.90;;;;;;5094969;28;20470;-70
2024/02/15 00:36:23;;;;;;;15.00;5.20;;;10.90;99.90;;;;;;5096028;28;20465;-70
2024/02/15 00:38:51;;;;;;;18.57;6.50;;;10.90;99.90;;;;;;5101964;28;20470;-70
2024/02/15 00:41:21;;;;;;;11.93;4.27;;;10.90;99.90;;;;;;5098867;28;20522;-70
2024/02/15 00:43:49;;;;;;;14.60;4.13;;;10.90;99.90;;;;;;5101567;28;20567;-70
2024/02/15 00:46:17;;;;;;;10.50;3.97;;;10.80;99.90;;;;;;5099170;28;21199;-70
2024/02/15 00:48:47;;;;;;;11.53;3.60;;;10.70;99.90;;;;;;5101115;28;20476;-70
2024/02/15 00:51:15;;;;;;;9.10;2.47;;;10.70;99.90;;;;;;5103081;28;20470;-70
2024/02/15 00:53:43;;;;;;;6.90;1.63;;;10.70;99.90;;;;;;5104075;28;20552;-69
2024/02/15 00:56:11;;;;;;;8.40;2.57;;;10.60;99.90;;;;;;5102548;28;20516;-69
2024/02/15 00:58:39;;;;;;;7.80;2.17;;;10.50;99.90;;;;;;5106041;28;21172;-67
2024/02/15 01:01:07;;;;;;;9.27;2.20;;;10.50;99.90;;;;;;5111460;28;20516;-69
2024/02/15 01:03:35;;;;;;;9.53;2.00;;;10.50;99.90;;;;;;5113090;28;20487;-69
2024/02/15 01:06:05;;;;;;;8.40;1.37;;;10.70;99.90;;;;;;5107573;28;20511;-69
2024/02/15 01:08:34;;;;;;;8.63;1.80;;;10.60;99.90;;;;;;5102359;28;20472;-69
2024/02/15 01:11:02;;;;;;;10.50;1.53;;;10.60;99.90;;;;;;5100811;28;20470;-69
2024/02/15 01:13:29;;;;;;;7.33;1.67;;;10.60;99.90;;;;;;5104196;28;20463;-70
2024/02/15 01:15:57;;;;;;;9.23;1.80;;;10.70;99.90;;;;;;5108462;28;20469;-69
2024/02/15 01:18:26;;;;;;;8.10;1.73;;;10.80;99.90;;;;;;5112703;28;20689;-69
2024/02/15 01:20:54;;;;;;;7.23;1.63;;;10.80;99.90;;;;;;5111512;28;20444;-69
2024/02/15 01:23:24;;;;;;;8.20;1.70;;;10.80;99.90;;;;;;5118719;28;20468;-69
2024/02/15 01:25:51;;;;;;;7.20;1.40;;;11.00;99.90;;;;;;5118882;28;20474;-69
2024/02/15 01:28:20;;;;;;;7.50;1.57;;;11.00;99.90;;;;;;5119957;28;20442;-69
2024/02/15 01:30:48;;;;;;;7.67;1.50;;;10.90;99.90;;;;;;5111474;28;20484;-68
2024/02/15 01:33:17;;;;;;;8.17;1.50;;;10.90;99.90;;;;;;5119168;28;20495;-69
2024/02/15 01:35:45;;;;;;;8.77;2.30;;;10.80;99.90;;;;;;5113870;27;20487;-69
2024/02/15 01:38:13;;;;;;;10.00;1.53;;;10.80;99.90;;;;;;5111352;28;20522;-70
2024/02/15 01:40:42;;;;;;;9.17;1.03;;;10.80;99.90;;;;;;5114947;28;20478;-69
2024/02/15 01:43:10;;;;;;;7.80;1.57;;;10.90;99.90;;;;;;5127561;28;20476;-68
2024/02/15 01:45:38;;;;;;;10.17;1.40;;;10.80;99.90;;;;;;5120978;28;20458;-70
2024/02/15 01:48:07;;;;;;;7.13;1.33;;;10.80;99.90;;;;;;5112184;27;20487;-71
2024/02/15 01:50:36;;;;;;;7.53;1.50;;;10.80;99.90;;;;;;5119303;28;20484;-71
2024/02/15 01:53:07;;;;;;;6.40;0.83;;;10.60;99.90;;;;;;5116089;28;20519;-72
2024/02/15 01:55:36;;;;;;;7.10;1.30;;;10.60;99.90;;;;;;5105845;28;20527;-72
2024/02/15 01:58:06;;;;;;;7.33;1.20;;;10.50;99.90;;;;;;5102583;28;20473;-71
2024/02/15 02:00:35;;;;;;;7.20;1.10;;;10.30;99.90;;;;;;5103259;28;20524;-72
2024/02/15 02:03:04;;;;;;;7.57;1.23;;;10.20;99.90;;;;;;5093654;28;20587;-72
2024/02/15 02:05:32;;;;;;;8.03;1.77;;;10.10;99.90;;;;;;5105066;28;20454;-71
2024/02/15 02:08:04;;;;;;;8.10;1.60;;;9.90;99.90;;;;;;5109680;28;20501;-72
2024/02/15 02:10:32;;;;;;;10.20;2.57;;;9.70;99.90;;;;;;5108762;28;20465;-72
2024/02/15 02:13:02;;;;;;;8.63;2.40;;;9.50;99.90;;;;;;5109163;28;20500;-71
2024/02/15 02:15:32;;;;;;;10.90;2.33;;;9.20;99.90;;;;;;5105529;28;20451;-72
2024/02/15 02:18:01;;;;;;;9.67;3.00;;;9.10;99.90;;;;;;5108211;28;20454;-71
2024/02/15 02:20:30;;;;;;;11.07;3.00;;;9.00;99.90;;;;;;5105595;28;20436;-71
2024/02/15 02:23:07;;;;;;;8.63;2.40;;;8.90;99.90;;;;;;5107339;28;20559;-71
2024/02/15 02:25:37;;;;;;;11.27;4.20;;;8.80;99.90;;;;;;5104163;28;20543;-72
2024/02/15 02:28:06;;;;;;;9.60;2.70;;;8.70;99.90;;;;;;5096894;28;20468;-72
2024/02/15 02:30:34;;;;;;;7.37;2.17;;;8.70;99.90;;;;;;5107379;28;20469;-72
2024/02/15 02:33:04;;;;;;;9.63;2.20;;;8.60;99.90;;;;;;5106732;28;20960;-71
2024/02/15 02:35:34;;;;;;;7.60;2.20;;;8.70;99.90;;;;;;5099984;28;21196;-71
2024/02/15 02:38:03;;;;;;;9.23;2.53;;;8.80;99.90;;;;;;5107984;28;20469;-72
2024/02/15 02:40:31;;;;;;;8.00;1.90;;;8.90;99.90;;;;;;5107809;28;20466;-71
2024/02/15 02:43:00;;;;;;;8.50;2.07;;;9.00;99.90;;;;;;5105741;28;20596;-71
2024/02/15 02:45:28;;;;;;;9.17;1.70;;;9.20;99.90;;;;;;5104845;28;20569;-72
2024/02/15 02:47:57;;;;;;;9.30;2.00;;;9.40;99.90;;;;;;5108447;28;20468;-71
2024/02/15 02:50:25;;;;;;;8.13;1.80;;;9.40;99.90;;;;;;5089344;28;20448;-72
2024/02/15 02:52:53;;;;;;;7.07;1.57;;;9.50;99.90;;;;;;5095494;28;21012;-71
2024/02/15 02:55:21;;;;;;;7.47;1.67;;;9.50;99.90;;;;;;5108419;28;20520;-71
2024/02/15 02:57:49;;;;;;;7.40;1.60;;;9.50;99.90;;;;;;5106071;28;20449;-71
2024/02/15 03:00:20;;;;;;;11.23;1.80;;;9.50;99.90;;;;;;5106413;28;20525;-72
2024/02/15 03:02:48;;;;;;;8.87;2.00;;;9.50;99.90;;;;;;5092186;28;20454;-72
2024/02/15 03:05:16;;;;;;;8.00;1.47;;;9.50;99.90;;;;;;5098154;28;20525;-71
2024/02/15 03:07:44;;;;;;;9.83;1.47;;;9.60;99.90;;;;;;5104401;28;20470;-71
2024/02/15 03:10:13;;;;;;;6.90;1.20;;;9.70;99.90;;;;;;5101629;28;20473;-71
2024/02/15 03:12:46;;;;;;;7.67;1.60;;;9.70;99.90;;;;;;5107229;28;20479;-72
2024/02/15 03:15:16;;;;;;;7.90;1.70;;;9.60;99.90;;;;;;5107034;28;20830;-71
2024/02/15 03:17:48;;;;;;;7.80;1.40;;;9.50;99.90;;;;;;5095403;28;20475;-71
2024/02/15 03:20:21;;;;;;;9.30;1.67;;;9.50;99.90;;;;;;5096952;28;20841;-71
2024/02/15 03:22:54;;;;;;;6.60;1.20;;;9.50;99.90;;;;;;5101556;28;21005;-72
2024/02/15 03:25:23;;;;;;;8.23;2.03;;;9.40;99.90;;;;;;5103752;28;20493;-72
2024/02/15 03:27:52;;;;;;;8.77;1.90;;;9.30;99.90;;;;;;5106197;28;21014;-72
2024/02/15 03:30:24;;;;;;;6.60;1.20;;;9.40;99.90;;;;;;5107489;28;20447;-72
2024/02/15 03:32:54;;;;;;;8.00;1.30;;;9.50;99.90;;;;;;5096442;28;20482;-72
2024/02/15 03:35:24;;;;;;;7.43;1.50;;;9.50;99.90;;;;;;5106767;28;21050;-72
2024/02/15 03:37:53;;;;;;;7.57;1.30;;;9.50;99.90;;;;;;5105263;28;20453;-72
2024/02/15 03:40:26;;;;;;;8.00;1.40;;;9.60;99.90;;;;;;5106128;28;20507;-72
2024/02/15 03:42:55;;;;;;;8.63;1.70;;;9.40;99.90;;;;;;5102652;28;21021;-71
2024/02/15 03:45:34;;;;;;;9.70;1.60;;;9.40;99.90;;;;;;5105083;28;20471;-72
2024/02/15 03:48:05;;;;;;;8.30;1.90;;;9.40;99.90;;;;;;5099338;28;21074;-72
2024/02/15 03:50:36;;;;;;;9.00;2.20;;;9.40;99.90;;;;;;5105952;28;20471;-71
2024/02/15 03:53:04;;;;;;;11.13;1.80;;;9.30;99.90;;;;;;5106196;28;20580;-73
2024/02/15 03:55:37;;;;;;;6.37;1.30;;;9.40;99.90;;;;;;5105799;28;20475;-72
2024/02/15 03:58:07;;;;;;;9.33;1.93;;;9.50;99.90;;;;;;5106892;28;20471;-72
2024/02/15 04:00:35;;;;;;;7.33;1.57;;;9.70;99.90;;;;;;5097909;28;20451;-71
2024/02/15 04:03:07;;;;;;;9.27;1.70;;;9.70;99.90;;;;;;5101577;28;20464;-72
2024/02/15 04:05:35;;;;;;;7.67;1.63;;;9.80;99.90;;;;;;5103379;28;20464;-72
2024/02/15 04:08:05;;;;;;;8.03;1.50;;;9.90;99.90;;;;;;5105211;28;20468;-73
2024/02/15 04:10:33;;;;;;;8.50;1.53;;;9.90;99.90;;;;;;5106905;28;20472;-71
2024/02/15 04:13:01;;;;;;;7.93;1.60;;;9.90;99.90;;;;;;5106289;28;21013;-71
2024/02/15 04:15:29;;;;;;;9.37;1.80;;;10.00;99.90;;;;;;5107137;28;20928;-72
2024/02/15 04:17:57;;;;;;;8.87;1.20;;;10.10;99.90;;;;;;5107301;28;21003;-72
2024/02/15 04:20:27;;;;;;;7.70;1.53;;;10.10;99.90;;;;;;5106878;28;20874;-72
2024/02/15 04:22:57;;;;;;;8.37;1.87;;;10.20;99.90;;;;;;5091932;28;20458;-72
2024/02/15 04:25:27;;;;;;;9.63;1.80;;;10.10;99.90;;;;;;5099560;28;20529;-72
2024/02/15 04:27:57;;;;;;;7.63;1.93;;;10.20;99.90;;;;;;5091728;28;20466;-72
2024/02/15 04:30:25;;;;;;;7.43;1.80;;;10.20;99.90;;;;;;5095539;28;20865;-71
2024/02/15 04:32:53;;;;;;;9.33;1.83;;;10.20;99.90;;;;;;5105834;28;21189;-72
2024/02/15 04:35:22;;;;;;;8.40;1.67;;;10.30;99.90;;;;;;5102913;28;20464;-72
2024/02/15 04:37:53;;;;;;;8.67;1.93;;;10.40;99.90;;;;;;5106470;28;20921;-72
2024/02/15 04:40:21;;;;;;;7.10;1.73;;;10.40;99.90;;;;;;5099220;28;20463;-72
2024/02/15 04:42:49;;;;;;;8.70;2.30;;;10.30;99.90;;;;;;5105186;28;20498;-72
2024/02/15 04:45:17;;;;;;;10.00;2.20;;;10.40;99.90;;;;;;5099959;28;20609;-72
2024/02/15 04:47:45;;;;;;;10.10;2.43;;;10.40;99.90;;;;;;5106142;28;20433;-72
2024/02/15 04:50:18;;;;;;;7.87;2.17;;;10.40;99.90;;;;;;5102081;28;20559;-71
2024/02/15 04:52:49;;;;;;;9.53;2.30;;;10.40;99.90;;;;;;5103588;28;20508;-72
2024/02/15 04:55:18;;;;;;;8.23;2.47;;;10.30;99.90;;;;;;5106205;28;20457;-71
2024/02/15 04:57:48;;;;;;;8.90;2.17;;;10.40;99.90;;;;;;5103466;28;20451;-71
2024/02/15 05:00:20;;;;;;;10.23;1.87;;;10.40;99.90;;;;;;5104856;28;21006;-70
2024/02/15 05:02:49;;;;;;;9.10;2.10;;;10.30;99.90;;;;;;5104495;28;20574;-71
2024/02/15 05:05:17;;;;;;;7.80;2.10;;;10.40;99.90;;;;;;5091492;28;20464;-72
2024/02/15 05:07:45;;;;;;;10.33;2.50;;;10.30;99.90;;;;;;5105829;28;20473;-71
2024/02/15 05:10:14;;;;;;;10.43;2.70;;;10.40;99.90;;;;;;5098364;28;20482;-71
2024/02/15 05:12:43;;;;;;;9.30;2.70;;;10.40;99.90;;;;;;5104664;28;20537;-71
2024/02/15 05:15:11;;;;;;;10.40;2.50;;;10.30;99.90;;;;;;5096585;28;20542;-71
2024/02/15 05:17:40;;;;;;;9.27;2.73;;;10.40;99.90;;;;;;5094057;28;20472;-71
2024/02/15 05:20:12;;;;;;;7.83;2.33;;;10.50;99.90;;;;;;5105649;28;20465;-71
2024/02/15 05:22:43;;;;;;;9.00;2.63;;;10.60;99.90;;;;;;5101359;28;20453;-71
2024/02/15 05:25:22;;;;;;;8.10;2.40;;;10.60;99.90;;;;;;5101075;28;20558;-71
2024/02/15 05:27:53;;;;;;;10.00;2.80;;;10.60;99.90;;;;;;5095744;28;20843;-72
2024/02/15 05:30:22;;;;;;;8.90;2.70;;;10.60;99.90;;;;;;5099218;28;20444;-71
2024/02/15 05:32:52;;;;;;;11.53;2.43;;;10.60;99.90;;;;;;5100336;28;20473;-71
2024/02/15 05:35:20;;;;;;;9.10;2.50;;;10.60;99.90;;;;;;5103156;28;21005;-71
2024/02/15 05:37:48;;;;;;;9.17;2.60;;;10.60;99.90;;;;;;5100063;28;20518;-72
2024/02/15 05:40:17;;;;;;;9.67;2.40;;;10.60;99.90;;;;;;5105542;28;20501;-71
2024/02/15 05:42:45;;;;;;;11.00;2.33;;;10.70;99.90;;;;;;5097393;28;20469;-73
2024/02/15 05:45:34;;;;;;;10.97;2.57;;;10.70;99.90;;;;;;5109760;28;20506;-72
2024/02/15 05:48:06;;;;;;;8.40;3.00;;;10.70;99.90;;;;;;5102100;28;20518;-72
2024/02/15 05:50:35;;;;;;;10.40;2.70;;;10.60;99.90;;;;;;5098055;28;20473;-72
2024/02/15 05:53:03;;;;;;;10.47;2.60;;;10.60;99.90;;;;;;5096317;28;21243;-72
2024/02/15 05:55:35;;;;;;;9.63;2.73;;;10.60;99.90;;;;;;5108904;28;20441;-73
2024/02/15 05:58:04;;;;;;;8.70;2.50;;;10.60;99.90;;;;;;5106435;28;20499;-72
2024/02/15 06:00:34;;;;;;;12.43;3.13;;;10.50;99.90;;;;;;5109279;28;20469;-72
2024/02/15 06:03:03;;;;;;;9.57;3.23;;;10.50;99.90;;;;;;5108898;28;20547;-72
2024/02/15 06:05:31;;;;;;;8.77;2.77;;;10.50;99.90;;;;;;5107284;28;20473;-72
2024/02/15 06:07:59;;;;;;;9.83;2.50;;;10.50;99.90;;;;;;5106221;28;20488;-72
2024/02/15 06:10:29;;;;;;;11.00;2.40;;;10.60;99.90;;;;;;5103719;28;20886;-72
2024/02/15 06:12:58;;;;;;;12.00;3.10;;;10.60;99.90;;;;;;5108183;28;21051;-72
2024/02/15 06:15:26;;;;;;;9.90;2.90;;;10.70;99.90;;;;;;5091436;28;20464;-73
2024/02/15 06:17:57;;;;;;;10.10;3.20;;;10.70;99.90;;;;;;5107108;28;20449;-73
2024/02/15 06:20:28;;;;;;;9.77;2.63;;;10.60;99.90;;;;;;5107756;28;20426;-72
2024/02/15 06:22:56;;;;;;;12.17;3.13;;;10.70;99.90;;;;;;5092238;28;20547;-72
2024/02/15 06:25:24;;;;;;;9.97;3.57;;;10.60;99.90;;;;;;5093198;28;20462;-73
2024/02/15 06:28:01;;;;;;;12.60;2.20;;;10.50;99.90;;;;;;5105104;28;21033;-73
2024/02/15 06:41:38;;;;;;;9.13;3.00;;;10.60;99.90;;;;;;5103806;28;20470;-72
2024/02/15 06:44:07;;;;;;;10.07;2.67;;;10.50;99.90;;;;;;5102925;28;20472;-72
2024/02/15 06:46:35;;;;;;;12.03;2.70;;;10.50;99.90;;;;;;5105592;28;20569;-72
2024/02/15 06:49:05;;;;;;;11.40;2.83;;;10.50;99.90;;;;;;5107526;28;20561;-73
2024/02/15 06:51:34;;;;;;;10.70;2.30;;;10.50;99.90;;;;;;5094838;28;20488;-72
2024/02/15 06:54:02;;;;;;;7.60;2.30;;;10.60;99.90;;;;;;5091902;28;20478;-72
2024/02/15 06:56:31;;;;;;;10.37;2.63;;;10.50;99.90;;;;;;5097879;28;20473;-72
2024/02/15 06:58:59;;;;;;;10.47;2.43;;;10.60;99.90;;;;;;5101868;28;20963;-72
2024/02/15 07:01:28;;;;;;;9.70;2.50;;;10.60;99.90;;;;;;5100034;28;20556;-73
2024/02/15 07:03:56;;;;;;;9.13;2.57;;;10.70;99.90;;;;;;5104835;28;20454;-72
2024/02/15 07:06:28;;;;;;;12.20;2.30;;;10.80;99.90;;;;;;5106238;28;20478;-72
2024/02/15 07:08:59;;;;;;;8.57;2.23;;;10.80;99.90;;;;;;5108046;28;20473;-72
2024/02/15 07:11:28;;;;;;;8.17;2.20;;;10.90;99.90;;;;;;5104502;28;20457;-72
2024/02/15 07:13:58;;;;;;;8.20;1.90;;;10.90;99.90;;;;;;5103848;28;20499;-72
2024/02/15 07:16:29;;;;;;;8.87;2.10;;;11.00;99.90;;;;;;5101304;28;20455;-73
2024/02/15 07:18:57;;;;;;;9.30;2.20;;;11.00;99.90;;;;;;5103945;28;20537;-73
2024/02/15 07:21:27;;;;;;;8.83;2.07;;;11.20;99.90;;;;;;5103851;28;20502;-73
2024/02/15 07:23:56;;;;;;;8.00;2.20;;;11.20;99.90;;;;;;5106165;28;20546;-73
2024/02/15 07:26:25;;;;;;;21.47;2.90;;;11.30;99.90;;;;;;5105589;28;20477;-72
2024/02/15 07:28:54;;;;;;;9.30;2.37;;;11.30;99.90;;;;;;5105842;28;20580;-72
2024/02/15 07:31:22;;;;;;;9.80;2.30;;;11.40;99.90;;;;;;5103701;28;20484;-72
2024/02/15 07:33:52;;;;;;;11.10;2.00;;;11.50;99.90;;;;;;5106394;28;22214;-72
2024/02/15 07:36:21;;;;;;;9.17;2.30;;;11.40;99.90;;;;;;5106950;28;20479;-72
2024/02/15 07:38:49;;;;;;;8.43;2.57;;;11.50;99.90;;;;;;5106480;28;20464;-72
2024/02/15 07:41:22;;;;;;;10.50;2.50;;;11.40;99.90;;;;;;5106550;28;20517;-72
2024/02/15 07:43:50;;;;;;;9.70;2.03;;;11.40;99.90;;;;;;5107866;28;20448;-72
2024/02/15 07:46:18;;;;;;;9.70;2.40;;;11.50;99.90;;;;;;5105499;28;20509;-73
2024/02/15 07:48:47;;;;;;;13.20;3.33;;;11.40;99.90;;;;;;5098528;28;20461;-72
2024/02/15 07:51:16;;;;;;;9.97;2.50;;;11.50;99.90;;;;;;5105009;28;20479;-72
2024/02/15 07:53:44;;;;;;;12.83;3.07;;;11.50;99.90;;;;;;5092233;28;20540;-72
2024/02/15 07:56:13;;;;;;;9.57;1.97;;;11.60;99.90;;;;;;5099076;28;20579;-73
2024/02/15 07:58:45;;;;;;;7.10;1.70;;;11.90;99.90;;;;;;5106469;28;20477;-72
2024/02/15 08:01:16;;;;;;;8.40;1.80;;;12.00;99.90;;;;;;5096490;28;20945;-72
2024/02/15 08:03:45;;;;;;;7.90;2.20;;;12.20;99.90;;;;;;5092246;28;20461;-72
2024/02/15 08:06:14;;;;;;;7.80;2.10;;;12.40;99.90;;;;;;5105210;28;20507;-73
2024/02/15 08:08:45;;;;;;;8.63;2.00;;;12.60;99.90;;;;;;5106735;28;20444;-73
2024/02/15 08:11:15;;;;;;;7.20;1.97;;;12.70;99.90;;;;;;5105246;28;20469;-73
2024/02/15 08:13:49;;;;;;;8.40;1.90;;;12.80;99.90;;;;;;5101100;28;20469;-71
2024/02/15 08:16:19;;;;;;;8.73;1.67;;;13.10;99.90;;;;;;5106465;28;20433;-74
2024/02/15 08:18:47;;;;;;;8.20;1.60;;;13.20;99.90;;;;;;5102258;28;20902;-72
2024/02/15 08:21:15;;;;;;;7.00;1.70;;;13.30;99.90;;;;;;5107272;28;20449;-74
2024/02/15 08:23:43;;;;;;;8.30;1.40;;;13.30;99.90;;;;;;5099937;28;20466;-72
2024/02/15 08:26:11;;;;;;;9.83;2.10;;;13.50;99.90;;;;;;5099475;28;20458;-72
2024/02/15 08:28:40;;;;;;;9.30;1.77;;;13.40;99.90;;;;;;5104812;28;20445;-72
2024/02/15 08:31:09;;;;;;;7.50;1.90;;;13.40;99.90;;;;;;5105480;28;20437;-72
2024/02/15 08:33:38;;;;;;;7.93;1.57;;;13.30;99.90;;;;;;5099752;28;20569;-72
2024/02/15 08:36:10;;;;;;;8.50;1.53;;;13.30;99.90;;;;;;5092746;28;20449;-71
2024/02/15 08:38:38;;;;;;;7.80;1.67;;;13.30;99.90;;;;;;5097539;28;20438;-71
2024/02/15 08:41:08;;;;;;;9.10;2.40;;;13.20;99.90;;;;;;5105849;28;20797;-78
2024/02/15 08:43:38;;;;;;;11.80;3.57;;;13.20;99.90;;;;;;5098701;28;20477;-72
2024/02/15 08:46:07;;;;;;;7.80;1.70;;;13.20;99.90;;;;;;5099003;28;20534;-73
2024/02/15 08:48:36;;;;;;;8.60;2.17;;;13.40;99.90;;;;;;5099169;28;20457;-70
2024/02/15 08:51:05;;;;;;;7.27;1.57;;;13.50;99.90;;;;;;5105879;28;20451;-70
2024/02/15 08:53:33;;;;;;;7.20;1.80;;;13.40;99.90;;;;;;5106226;28;20499;-72
2024/02/15 08:56:02;;;;;;;8.77;1.90;;;13.50;99.90;;;;;;5101497;28;20477;-71
2024/02/15 08:58:30;;;;;;;10.30;2.70;;;13.60;99.90;;;;;;5103535;28;20449;-72
2024/02/15 09:00:59;;;;;;;9.33;2.23;;;13.50;99.90;;;;;;5103346;28;20449;-71
2024/02/15 09:03:27;;;;;;;8.27;1.90;;;13.40;99.90;;;;;;5103855;28;20472;-71
2024/02/15 09:05:59;;;;;;;8.20;2.30;;;13.40;99.90;;;;;;5103646;28;20473;-72
2024/02/15 09:08:28;;;;;;;8.70;2.10;;;13.30;99.90;;;;;;5103393;28;20547;-72
2024/02/15 09:10:57;;;;;;;9.37;1.90;;;13.20;99.90;;;;;;5102992;28;20510;-71
2024/02/15 09:13:26;;;;;;;8.80;2.63;;;13.20;99.90;;;;;;5103363;28;21031;-73
2024/02/15 09:15:54;;;;;;;8.37;2.37;;;13.10;99.90;;;;;;5101087;28;20517;-71
2024/02/15 09:18:23;;;;;;;7.50;2.20;;;13.00;99.90;;;;;;5094089;28;20563;-70
2024/02/15 09:20:55;;;;;;;9.77;2.17;;;13.10;99.90;;;;;;5093989;28;20449;-69
2024/02/15 09:23:25;;;;;;;8.93;2.40;;;13.20;99.90;;;;;;5088716;28;20523;-72
2024/02/15 09:25:53;;;;;;;8.37;1.90;;;13.20;99.90;;;;;;5095551;28;20476;-72
2024/02/15 09:28:21;;;;;;;8.40;2.13;;;13.30;99.90;;;;;;5097934;28;20432;-67
2024/02/15 09:30:51;;;;;;;8.27;2.10;;;13.50;99.90;;;;;;5101707;28;20459;-67
2024/02/15 09:33:20;;;;;;;10.17;2.70;;;13.70;99.90;;;;;;5102785;28;20728;-69
2024/02/15 09:35:48;;;;;;;9.30;3.13;;;13.90;99.90;;;;;;5105282;28;20924;-68
2024/02/15 09:38:19;;;;;;;11.63;2.93;;;14.10;99.90;;;;;;5106871;28;20449;-69
2024/02/15 09:40:50;;;;;;;10.27;2.47;;;14.30;99.90;;;;;;5105637;28;20987;-68
2024/02/15 09:43:18;;;;;;;8.60;2.53;;;14.50;99.90;;;;;;5107958;28;20462;-69
2024/02/15 09:45:48;;;;;;;8.00;2.47;;;14.80;99.90;;;;;;5101949;28;20451;-68
2024/02/15 09:48:17;;;;;;;8.27;2.37;;;15.10;99.90;;;;;;5104836;28;20429;-68
2024/02/15 09:50:46;;;;;;;11.10;2.33;;;15.30;99.90;;;;;;5104054;28;20506;-69
2024/02/15 09:53:16;;;;;;;8.50;2.20;;;15.60;99.90;;;;;;5104841;28;20552;-69
2024/02/15 09:55:44;;;;;;;8.87;2.63;;;15.90;99.90;;;;;;5103617;28;21373;-70
2024/02/15 09:58:15;;;;;;;9.90;2.43;;;16.20;99.90;;;;;;5099781;28;20445;-69
2024/02/15 10:00:46;;;;;;;8.87;2.63;;;16.70;99.90;;;;;;5104672;28;20812;-68
2024/02/15 10:03:19;;;;;;;7.70;2.30;;;17.00;99.90;;;;;;5100975;28;21119;-69
2024/02/15 10:05:49;;;;;;;11.80;2.80;;;17.00;99.90;;;;;;5104630;28;20452;-68
2024/02/15 10:08:18;;;;;;;10.53;2.47;;;17.30;99.00;;;;;;5105911;28;20528;-69
2024/02/15 10:10:46;;;;;;;10.70;2.60;;;17.20;98.00;;;;;;5102916;28;21247;-68
2024/02/15 10:13:23;;;;;;;9.13;2.50;;;17.30;98.30;;;;;;5106469;28;20453;-69
2024/02/15 10:15:51;;;;;;;11.40;2.77;;;17.60;96.30;;;;;;5104427;28;20660;-67
2024/02/15 10:18:22;;;;;;;9.10;2.40;;;17.40;96.20;;;;;;5099112;28;21211;-69
2024/02/15 10:20:59;;;;;;;10.47;2.97;;;17.60;95.40;;;;;;5099916;28;20442;-68
2024/02/15 10:23:27;;;;;;;8.23;1.97;;;18.20;94.10;;;;;;5100191;28;20464;-70
2024/02/15 10:25:56;;;;;;;9.40;2.53;;;18.60;93.80;;;;;;5095357;28;20442;-70
2024/02/15 10:28:27;;;;;;;9.90;2.17;;;19.00;92.30;;;;;;5102098;28;20450;-70
2024/02/15 10:30:55;;;;;;;7.83;2.30;;;19.60;90.40;;;;;;5106198;28;20442;-68
2024/02/15 10:33:28;;;;;;;11.07;2.10;;;19.60;90.40;;;;;;5106150;28;20463;-68
2024/02/15 10:36:06;;;;;;;7.30;2.10;;;19.90;87.60;;;;;;5108525;28;21315;-69
2024/02/15 10:38:35;;;;;;;8.10;1.93;;;20.10;83.30;;;;;;5098639;28;20453;-68
2024/02/15 10:41:05;;;;;;;9.40;2.37;;;20.40;81.50;;;;;;5107807;28;21069;-69
2024/02/15 10:43:37;;;;;;;9.60;2.10;;;20.40;83.10;;;;;;5108892;28;21376;-69
2024/02/15 10:46:07;;;;;;;7.63;2.00;;;20.70;81.20;;;;;;5107532;28;20434;-68
2024/02/15 10:48:35;;;;;;;8.40;2.10;;;21.10;79.30;;;;;;5100164;28;20441;-69
2024/02/15 10:51:10;;;;;;;8.60;1.73;;;21.40;77.90;;;;;;5103428;28;20450;-68
2024/02/15 10:53:47;;;;;;;8.20;1.60;;;21.70;74.90;;;;;;5103906;28;20524;-68
2024/02/15 10:56:19;;;;;;;8.50;2.00;;;21.80;73.40;;;;;;5101367;28;20504;-69
2024/02/15 10:58:53;;;;;;;8.10;2.00;;;22.00;73.10;;;;;;5107210;28;20528;-68
2024/02/15 11:01:24;;;;;;;9.33;2.00;;;22.10;71.20;;;;;;5091274;28;20454;-69
2024/02/15 11:03:58;;;;;;;9.63;1.50;;;22.30;71.70;;;;;;5103810;28;20603;-69
2024/02/15 11:06:29;;;;;;;8.90;1.57;;;22.20;68.30;;;;;;5103746;28;20513;-69
2024/02/15 11:08:59;;;;;;;7.37;1.67;;;22.20;67.20;;;;;;5104175;28;20574;-68
2024/02/15 11:11:28;;;;;;;7.90;1.70;;;22.30;66.80;;;;;;5100373;28;20449;-69
2024/02/15 11:14:29;;;;;;;9.77;2.20;;;22.40;67.70;;;;;;5105506;28;20457;-71
2024/02/15 11:16:57;;;;;;;9.63;1.33;;;22.90;66.00;;;;;;5102569;28;20613;-70
2024/02/15 11:19:46;;;;;;;9.30;1.60;;;23.20;62.90;;;;;;5099551;28;20528;-72
2024/02/15 11:22:16;;;;;;;7.90;1.37;;;23.40;62.10;;;;;;5100214;28;20437;-60
2024/02/15 11:24:48;;;;;;;8.07;1.27;;;23.60;60.50;;;;;;5104138;28;20465;-62
2024/02/15 11:27:27;;;;;;;8.17;0.90;;;23.60;60.50;;;;;;5098505;28;20430;-63
2024/02/15 11:30:03;;;;;;;8.20;1.20;;;23.70;59.00;;;;;;5104672;28;20471;-62
2024/02/15 11:32:43;;;;;;;7.73;1.00;;;23.50;57.90;;;;;;5103445;28;20540;-62
2024/02/15 11:35:15;;;;;;;9.43;2.30;;;23.50;57.10;;;;;;5103906;28;20458;-63
2024/02/15 11:37:54;;;;;;;8.10;0.90;;;23.60;56.00;;;;;;5100869;28;20430;-63
2024/02/15 11:40:23;;;;;;;7.93;1.00;;;23.70;56.20;;;;;;5097710;28;20459;-64
2024/02/15 11:42:53;;;;;;;6.80;0.93;;;23.90;55.90;;;;;;5104047;28;20520;-63
2024/02/15 11:45:25;;;;;;;7.80;1.20;;;23.60;55.90;;;;;;5101865;28;20943;-63
2024/02/15 11:47:55;;;;;;;6.97;0.90;;;23.60;55.60;;;;;;5093287;28;20551;-63
2024/02/15 11:50:25;;;;;;;7.70;1.10;;;23.70;57.10;;;;;;5101309;28;20430;-63
2024/02/15 11:52:53;;;;;;;6.83;1.03;;;23.80;56.60;;;;;;5095177;28;20998;-63
2024/02/15 11:55:22;;;;;;;7.60;1.10;;;23.40;56.60;;;;;;5092720;28;20445;-63
2024/02/15 11:58:04;;;;;;;7.83;1.20;;;23.20;57.10;;;;;;5099818;28;20487;-63
2024/02/15 12:20:06;;;;;;;8.90;2.20;;;20.70;60.10;;;;;;5100392;28;20439;-62
2024/02/15 12:22:40;;;;;;;6.90;1.20;;;20.20;61.90;;;;;;5092184;28;20476;-63
2024/02/15 12:25:12;;;;;;;8.03;1.73;;;20.00;62.10;;;;;;5097326;28;20465;-63
2024/02/15 12:27:41;;;;;;;8.57;1.30;;;19.90;65.00;;;;;;5103017;28;20445;-63
2024/02/15 12:30:15;;;;;;;7.50;1.37;;;19.70;65.10;;;;;;5096084;28;20499;-63
2024/02/15 12:32:44;;;;;;;7.10;1.30;;;19.60;66.60;;;;;;5101172;28;20454;-62
2024/02/15 12:35:16;;;;;;;10.53;1.27;;;19.50;66.80;;;;;;5103672;28;20449;-63
2024/02/15 12:37:45;;;;;;;7.97;1.30;;;19.50;66.90;;;;;;5103986;28;20598;-63
2024/02/15 12:40:15;;;;;;;7.33;1.23;;;19.70;67.60;;;;;;5093337;28;20457;-62
2024/02/15 12:42:44;;;;;;;7.20;1.40;;;19.90;67.20;;;;;;5090944;28;20448;-63
2024/02/15 12:45:20;;;;;;;7.80;1.30;;;20.10;67.00;;;;;;5085353;28;20532;-63
2024/02/15 12:47:51;;;;;;;9.50;1.70;;;20.10;66.40;;;;;;5102973;28;20478;-63
2024/02/15 12:50:21;;;;;;;7.53;1.53;;;20.10;66.90;;;;;;5097253;28;20473;-64
2024/02/15 12:52:50;;;;;;;7.27;1.43;;;19.90;66.60;;;;;;5106523;28;20465;-63
2024/02/15 12:55:20;;;;;;;9.10;1.50;;;20.00;66.00;;;;;;5106028;28;20469;-66
2024/02/15 12:57:51;;;;;;;9.40;1.60;;;19.90;66.40;;;;;;5105510;28;20484;-67
2024/02/15 13:00:20;;;;;;;8.10;1.47;;;19.90;68.60;;;;;;5106417;28;20479;-69
2024/02/15 13:02:52;;;;;;;8.23;1.50;;;19.90;66.70;;;;;;5102835;28;20476;-68
2024/02/15 13:05:21;;;;;;;7.87;1.53;;;19.70;66.60;;;;;;5105547;28;20494;-68
2024/02/15 13:07:50;;;;;;;8.10;1.43;;;19.60;67.50;;;;;;5100051;28;20717;-67
2024/02/15 13:10:18;;;;;;;6.93;1.40;;;19.60;67.10;;;;;;5106506;28;20540;-67
2024/02/15 13:12:47;;;;;;;7.80;1.37;;;19.60;68.40;;;;;;5104460;28;20473;-65
2024/02/15 13:15:15;;;;;;;8.03;1.50;;;19.60;68.00;;;;;;5105763;28;20556;-67
2024/02/15 13:17:45;;;;;;;7.47;1.70;;;19.60;67.10;;;;;;5103128;28;20476;-68
2024/02/15 13:20:16;;;;;;;6.90;1.00;;;19.70;66.70;;;;;;5099720;28;20475;-69
2024/02/15 13:22:44;;;;;;;7.00;1.20;;;19.70;66.90;;;;;;5105516;28;20438;-69
2024/02/15 13:25:13;;;;;;;7.20;1.20;;;19.60;65.80;;;;;;5096507;28;21044;-67
2024/02/15 13:27:41;;;;;;;10.43;1.50;;;19.60;66.70;;;;;;5102697;28;21235;-67
2024/02/15 13:30:10;;;;;;;8.40;1.30;;;19.50;67.60;;;;;;5103922;28;20506;-67